Time;durP1;ratioP1;P1;durP2;ratioP2;P2;SDS_P1;SDS_P2;PMS_P1;PMS_P2;Temp;Humidity;BMP_temperature;BMP_pressure;BME280_temperature;BME280_humidity;BME280_pressure;Samples;Min_cycle;Max_cycle;Signal;HPM_P1;HPM_P2
2022/04/19 00:00:06;;;;;;;14.23;10.48;;;;;;;9.78;62.54;101393.00;5057171;28;20043;-63
2022/04/19 00:02:32;;;;;;;13.68;10.30;;;;;;;9.81;62.90;101383.41;5056924;28;20033;-62
2022/04/19 00:04:59;;;;;;;15.52;11.23;;;;;;;9.71;63.08;101377.31;5067784;28;20039;-62
2022/04/19 00:07:25;;;;;;;12.98;10.85;;;;;;;9.75;63.54;101372.09;5077269;28;20431;-63
2022/04/19 00:09:50;;;;;;;12.88;10.85;;;;;;;9.74;62.87;101369.47;5076818;28;20037;-62
2022/04/19 00:12:15;;;;;;;14.00;10.95;;;;;;;9.68;62.69;101382.56;5076937;28;20424;-62
2022/04/19 00:14:41;;;;;;;15.50;11.07;;;;;;;9.67;62.89;101370.38;5076465;28;20039;-62
2022/04/19 00:17:07;;;;;;;14.20;10.95;;;;;;;9.68;62.96;101372.97;5076995;28;20115;-62
2022/04/19 00:19:32;;;;;;;15.63;11.85;;;;;;;9.67;63.37;101376.47;5076763;28;20063;-63
2022/04/19 00:21:57;;;;;;;18.35;11.73;;;;;;;9.58;62.02;101371.22;5076683;28;20079;-63
2022/04/19 00:24:22;;;;;;;17.08;11.98;;;;;;;9.49;63.29;101354.72;5076420;28;20078;-62
2022/04/19 00:26:48;;;;;;;15.27;11.52;;;;;;;9.51;62.98;101350.34;5076748;28;20036;-63
2022/04/19 00:29:13;;;;;;;15.38;11.80;;;;;;;9.45;63.00;101366.91;5076237;28;20092;-63
2022/04/19 00:31:38;;;;;;;17.55;12.50;;;;;;;9.47;63.22;101361.66;5076475;28;20074;-63
2022/04/19 00:34:03;;;;;;;15.90;12.13;;;;;;;9.31;64.15;101337.31;5075919;28;20055;-62
2022/04/19 00:36:29;;;;;;;15.77;12.95;;;;;;;9.43;64.10;101360.78;5076379;28;20439;-63
2022/04/19 00:38:54;;;;;;;14.73;12.30;;;;;;;9.42;61.74;101366.91;5076394;28;20025;-62
2022/04/19 00:41:19;;;;;;;15.40;13.35;;;;;;;9.27;63.65;101364.28;5076595;28;20060;-64
2022/04/19 00:43:45;;;;;;;19.00;13.60;;;;;;;9.22;63.11;101358.19;5076523;28;20423;-63
2022/04/19 00:46:10;;;;;;;17.35;13.48;;;;;;;9.23;62.17;101359.91;5076247;28;20329;-62
2022/04/19 00:48:35;;;;;;;17.17;12.73;;;;;;;9.05;61.57;101366.00;5076251;28;20036;-63
2022/04/19 00:51:01;;;;;;;17.92;13.23;;;;;;;8.97;63.62;101360.78;5076060;28;20086;-63
2022/04/19 00:53:27;;;;;;;16.63;13.48;;;;;;;8.98;62.56;101361.66;5076154;28;20024;-62
2022/04/19 00:55:53;;;;;;;17.65;13.65;;;;;;;8.95;63.34;101359.03;5076183;28;20039;-63
2022/04/19 00:58:19;;;;;;;15.50;12.65;;;;;;;8.87;61.64;101353.78;5076163;28;20032;-63
2022/04/19 01:00:44;;;;;;;16.50;12.82;;;;;;;8.87;62.24;101361.63;5076135;28;20428;-64
2022/04/19 01:03:09;;;;;;;17.08;13.63;;;;;;;8.80;62.93;101359.88;5075429;28;20430;-63
2022/04/19 01:05:35;;;;;;;18.95;14.35;;;;;;;8.76;64.28;101362.47;5075883;28;20142;-62
2022/04/19 01:08:01;;;;;;;17.63;13.60;;;;;;;8.77;63.46;101361.63;5075945;28;20039;-63
2022/04/19 01:10:26;;;;;;;17.42;13.13;;;;;;;8.65;63.49;101360.72;5076001;28;20040;-62
2022/04/19 01:15:36;;;;;;;17.45;14.18;;;;;;;8.58;64.39;101351.13;5055950;28;20052;-63
2022/04/19 01:18:02;;;;;;;17.58;14.65;;;;;;;8.60;64.25;101356.34;5055431;28;20029;-62
2022/04/19 01:20:28;;;;;;;18.75;14.48;;;;;;;8.58;64.29;101358.09;5055558;28;20029;-63
2022/04/19 01:22:54;;;;;;;22.48;13.70;;;;;;;8.55;64.00;101353.72;5055429;28;20029;-63
2022/04/19 01:25:20;;;;;;;17.38;14.32;;;;;;;8.62;64.03;101352.03;5055167;28;20149;-62
2022/04/19 01:27:48;;;;;;;19.67;14.35;;;;;;;8.59;63.26;101346.78;5055704;28;20478;-62
2022/04/19 01:30:15;;;;;;;21.38;15.43;;;;;;;8.55;64.00;101342.41;5055607;28;20048;-62
2022/04/19 01:32:41;;;;;;;21.95;14.77;;;;;;;8.53;63.22;101345.03;5055002;28;20040;-62
2022/04/19 01:35:07;;;;;;;23.35;14.45;;;;;;;8.52;62.81;101340.66;5055717;28;20106;-63
2022/04/19 01:37:36;;;;;;;20.23;15.25;;;;;;;8.43;63.05;101351.09;5055428;28;20343;-62
2022/04/19 01:40:18;;;;;;;21.02;14.88;;;;;;;8.41;65.02;101338.91;5054900;28;20436;-62
2022/04/19 01:42:48;;;;;;;19.98;15.00;;;;;;;8.47;65.11;101345.03;5055332;28;20115;-63
2022/04/19 01:45:18;;;;;;;20.05;15.45;;;;;;;8.42;65.63;101346.72;5055219;28;20309;-62
2022/04/19 01:47:45;;;;;;;22.80;15.40;;;;;;;8.39;65.64;101341.50;5055140;28;20029;-62
2022/04/19 01:50:13;;;;;;;17.00;13.38;;;;;;;8.29;64.35;101332.75;5055360;28;20036;-63
2022/04/19 01:52:40;;;;;;;20.45;14.70;;;;;;;8.19;64.91;101336.19;5055112;28;20037;-63
2022/04/19 01:55:07;;;;;;;20.42;14.90;;;;;;;8.12;65.04;101338.75;5055477;28;20105;-63
2022/04/19 01:57:33;;;;;;;18.50;14.75;;;;;;;7.93;65.00;101325.66;5055128;28;20028;-62
2022/04/19 01:59:58;;;;;;;22.38;14.85;;;;;;;7.95;66.15;101339.56;5055041;28;20055;-64
2022/04/19 02:02:24;;;;;;;20.52;15.35;;;;;;;7.78;65.97;101348.13;5054804;28;20095;-62
2022/04/19 02:04:52;;;;;;;19.90;14.60;;;;;;;7.74;67.37;101341.16;5055009;28;20445;-63
2022/04/19 02:07:17;;;;;;;21.08;15.82;;;;;;;7.73;68.25;101334.22;5055112;28;20059;-63
2022/04/19 02:09:42;;;;;;;22.45;14.95;;;;;;;7.78;66.34;101342.94;5055030;28;20029;-62
2022/04/19 02:12:08;;;;;;;21.33;15.40;;;;;;;7.78;67.50;101335.13;5054576;28;20033;-62
2022/04/19 02:14:34;;;;;;;19.90;14.75;;;;;;;7.78;66.83;101329.91;5054624;28;20467;-62
2022/04/19 02:16:59;;;;;;;20.90;15.05;;;;;;;7.75;68.23;101338.56;5054711;28;20049;-62
2022/04/19 02:19:25;;;;;;;19.80;15.25;;;;;;;7.73;67.85;101335.06;5054413;28;20033;-63
2022/04/19 02:21:50;;;;;;;22.38;15.10;;;;;;;7.81;68.50;101335.97;5055039;28;20037;-62
2022/04/19 02:24:15;;;;;;;20.33;16.45;;;;;;;7.84;67.62;101337.72;5054565;28;20131;-62
2022/04/19 02:26:40;;;;;;;20.50;15.88;;;;;;;7.72;67.88;101335.06;5054885;28;20402;-64
2022/04/19 02:29:06;;;;;;;22.92;15.68;;;;;;;7.69;68.67;101338.53;5054631;28;20043;-62
2022/04/19 02:31:31;;;;;;;24.95;16.55;;;;;;;7.76;68.99;101327.28;5055010;28;20139;-62
2022/04/19 02:33:58;;;;;;;21.83;16.33;;;;;;;7.74;68.15;101313.38;5054699;28;20041;-63
2022/04/19 02:36:27;;;;;;;23.00;17.73;;;;;;;7.71;67.61;101328.09;5054993;28;20064;-63
2022/04/19 02:38:53;;;;;;;22.15;17.40;;;;;;;7.62;68.93;101329.78;5054496;28;20051;-62
2022/04/19 02:41:18;;;;;;;24.15;16.73;;;;;;;7.55;69.67;101328.03;5054925;28;20029;-62
2022/04/19 02:43:43;;;;;;;23.92;17.15;;;;;;;7.62;68.50;101332.38;5054251;28;20092;-63
2022/04/19 02:46:09;;;;;;;22.08;17.15;;;;;;;7.61;69.05;101327.19;5054364;28;20033;-62
2022/04/19 02:48:35;;;;;;;21.27;17.05;;;;;;;7.53;69.06;101326.25;5054678;28;20403;-62
2022/04/19 02:51:00;;;;;;;22.40;16.48;;;;;;;7.51;69.23;101325.38;5054779;28;20090;-62
2022/04/19 02:53:26;;;;;;;21.17;16.23;;;;;;;7.44;68.11;101319.28;5054507;28;20349;-62
2022/04/19 02:55:52;;;;;;;21.17;16.60;;;;;;;7.38;68.61;101327.03;5054330;28;20040;-63
2022/04/19 02:58:17;;;;;;;23.20;16.50;;;;;;;7.31;68.87;101325.22;5058337;28;20028;-63
2022/04/19 03:00:43;;;;;;;23.98;17.58;;;;;;;7.28;69.98;101313.06;5058522;28;20028;-63
2022/04/19 03:03:12;;;;;;;21.60;16.52;;;;;;;7.26;69.24;101312.19;5057108;28;20043;-62
2022/04/19 03:05:40;;;;;;;23.10;16.67;;;;;;;7.32;70.03;101320.03;5058334;28;20108;-62
2022/04/19 03:08:05;;;;;;;22.23;16.95;;;;;;;7.24;70.75;101320.84;5058008;28;20447;-62
2022/04/19 03:10:31;;;;;;;20.80;16.25;;;;;;;7.22;69.98;101310.44;5057805;28;20127;-62
2022/04/19 03:12:56;;;;;;;22.80;17.05;;;;;;;7.21;70.24;101324.31;5058110;28;20060;-62
2022/04/19 03:15:22;;;;;;;25.83;17.52;;;;;;;7.09;70.26;101311.19;5058111;28;20106;-62
2022/04/19 03:17:48;;;;;;;22.63;17.45;;;;;;;7.10;70.86;101317.28;5058183;28;20036;-62
2022/04/19 03:20:13;;;;;;;22.77;17.95;;;;;;;7.01;72.29;101317.19;5058802;28;20060;-63
2022/04/19 03:28:09;;;;;;;26.10;17.45;;;;;;;6.98;71.60;101318.88;5057731;28;20517;-62
2022/04/19 03:30:35;;;;;;;24.70;17.55;;;;;;;6.96;71.63;101317.13;5057849;28;20340;-62
2022/04/19 03:33:00;;;;;;;30.83;18.25;;;;;;;6.92;71.33;101321.47;5057350;28;20053;-63
2022/04/19 03:35:27;;;;;;;25.33;18.52;;;;;;;6.93;72.36;101315.38;5057588;28;20337;-63
2022/04/19 03:37:53;;;;;;;23.67;17.55;;;;;;;6.98;72.42;101318.88;5057790;28;20053;-62
2022/04/19 03:40:18;;;;;;;24.20;18.35;;;;;;;7.00;73.06;101311.09;5057750;28;20106;-61
2022/04/19 03:42:43;;;;;;;24.33;17.65;;;;;;;7.03;71.77;101313.72;5057266;28;20061;-62
2022/04/19 03:45:10;;;;;;;28.17;18.30;;;;;;;7.02;72.49;101314.59;5057630;28;20025;-62
2022/04/19 03:47:36;;;;;;;29.73;18.45;;;;;;;6.90;72.34;101310.16;5057482;28;20040;-63
2022/04/19 03:50:01;;;;;;;25.25;18.08;;;;;;;6.89;72.29;101312.75;5057380;28;20041;-62
2022/04/19 03:52:27;;;;;;;26.60;18.02;;;;;;;6.81;72.60;101310.06;5057234;28;20123;-63
2022/04/19 03:54:52;;;;;;;27.05;18.15;;;;;;;6.76;72.70;101313.47;5057260;28;20029;-62
2022/04/19 03:57:18;;;;;;;29.20;18.55;;;;;;;6.82;72.92;101316.13;5057382;28;20032;-62
2022/04/19 03:59:44;;;;;;;28.23;18.33;;;;;;;6.78;73.90;101320.44;5057420;28;20033;-63
2022/04/19 04:02:10;;;;;;;24.98;18.83;;;;;;;6.81;74.05;101317.00;5057204;28;20032;-62
2022/04/19 04:04:36;;;;;;;26.50;18.25;;;;;;;6.89;74.05;101321.44;5057218;28;20509;-62
2022/04/19 04:07:03;;;;;;;25.58;17.92;;;;;;;6.88;73.95;101317.09;5056833;28;20033;-62
2022/04/19 04:09:37;;;;;;;24.85;18.52;;;;;;;6.91;73.29;101329.25;5055768;28;20033;-62
2022/04/19 04:12:05;;;;;;;26.83;18.23;;;;;;;6.91;74.37;101321.44;5056970;28;20037;-62
2022/04/19 04:14:31;;;;;;;29.13;18.55;;;;;;;6.86;73.74;101323.13;5056936;28;20037;-64
2022/04/19 04:16:56;;;;;;;23.63;18.15;;;;;;;6.80;74.75;101316.13;5056809;28;20040;-62
2022/04/19 04:19:21;;;;;;;27.58;19.25;;;;;;;6.82;74.78;101313.53;5056762;28;20526;-61
2022/04/19 04:21:46;;;;;;;23.83;18.00;;;;;;;6.86;74.36;101317.91;5056584;28;20078;-60
2022/04/19 04:24:12;;;;;;;25.75;17.90;;;;;;;6.84;74.34;101323.09;5056628;28;20416;-61
2022/04/19 04:26:37;;;;;;;25.58;18.08;;;;;;;6.80;75.09;101317.84;5056629;28;20044;-61
2022/04/19 04:29:03;;;;;;;23.33;17.98;;;;;;;6.75;74.94;101322.16;5056700;28;20025;-62
2022/04/19 04:31:28;;;;;;;27.75;17.67;;;;;;;6.84;74.48;101324.84;5056007;28;20033;-63
2022/04/19 04:33:53;;;;;;;27.40;18.05;;;;;;;6.83;75.12;101334.38;5057005;28;20094;-61
2022/04/19 04:36:19;;;;;;;22.38;17.15;;;;;;;6.80;75.20;101330.84;5056474;28;20444;-61
2022/04/19 04:38:45;;;;;;;25.25;17.65;;;;;;;6.78;75.46;101328.22;5056509;28;20086;-61
2022/04/19 04:41:10;;;;;;;22.85;17.63;;;;;;;6.78;75.49;101322.16;5056468;28;20048;-62
2022/04/19 04:43:35;;;;;;;27.52;18.40;;;;;;;6.82;74.91;101326.53;5056391;28;20021;-61
2022/04/19 04:51:29;;;;;;;28.45;17.48;;;;;;;6.86;74.03;101325.72;5055944;28;20128;-62
2022/04/19 04:53:54;;;;;;;22.42;17.17;;;;;;;6.84;74.16;101327.44;5056196;28;20112;-61
2022/04/19 04:56:23;;;;;;;23.52;16.23;;;;;;;6.84;73.02;101323.09;5069875;28;20040;-62
2022/04/19 04:58:48;;;;;;;23.98;16.88;;;;;;;6.83;74.68;101333.50;5075978;28;20036;-61
2022/04/19 05:01:13;;;;;;;26.27;17.70;;;;;;;6.80;75.17;101331.72;5075830;28;20021;-61
2022/04/19 05:03:39;;;;;;;25.17;17.65;;;;;;;6.86;75.30;101334.41;5075855;28;20079;-55
2022/04/19 05:06:04;;;;;;;25.80;18.13;;;;;;;6.89;74.65;101336.16;5076148;28;20345;-61
2022/04/19 05:08:29;;;;;;;24.50;17.55;;;;;;;6.89;75.38;101333.56;5075958;28;20029;-62
2022/04/19 05:10:54;;;;;;;22.75;16.38;;;;;;;6.86;73.29;101338.72;5075766;28;20024;-62
2022/04/19 05:13:20;;;;;;;23.55;15.82;;;;;;;6.86;73.07;101325.72;5075365;28;20443;-60
2022/04/19 05:15:45;;;;;;;25.58;16.77;;;;;;;6.89;73.20;101331.84;5071306;28;20032;-61
2022/04/19 05:18:11;;;;;;;21.40;16.90;;;;;;;6.96;74.47;101340.53;5064268;28;20056;-61
2022/04/19 05:20:36;;;;;;;27.30;17.25;;;;;;;6.99;75.34;101335.38;5067931;28;20095;-62
2022/04/19 05:23:02;;;;;;;24.90;17.05;;;;;;;7.09;73.39;101338.94;5063585;28;20016;-60
2022/04/19 05:25:27;;;;;;;26.25;17.52;;;;;;;7.13;73.62;101341.56;5056606;28;20116;-63
2022/04/19 05:27:52;;;;;;;25.13;18.00;;;;;;;7.19;74.02;101335.56;5074928;28;20043;-63
2022/04/19 05:30:17;;;;;;;25.15;17.25;;;;;;;7.31;74.36;101336.50;5074971;28;20029;-62
2022/04/19 05:32:42;;;;;;;24.50;15.75;;;;;;;7.69;72.75;101341.13;5075026;28;20059;-63
2022/04/19 05:35:08;;;;;;;22.05;15.45;;;;;;;8.29;68.72;101342.31;5074999;28;20329;-64
2022/04/19 05:37:36;;;;;;;21.40;16.40;;;;;;;9.13;67.01;101348.63;5074824;28;20025;-63
2022/04/19 05:40:01;;;;;;;28.33;15.98;;;;;;;10.05;63.86;101328.44;5074616;28;20028;-63
2022/04/19 05:42:26;;;;;;;20.88;15.13;;;;;;;10.80;60.13;101321.97;5073729;28;20051;-63
2022/04/19 05:44:52;;;;;;;23.88;15.15;;;;;;;10.92;59.19;101326.25;5074380;28;20452;-64
2022/04/19 05:47:17;;;;;;;19.55;15.07;;;;;;;10.76;60.04;101325.50;5074486;28;20033;-63
2022/04/19 05:49:42;;;;;;;19.60;14.45;;;;;;;10.65;57.56;101331.69;5074595;28;20058;-63
2022/04/19 05:52:07;;;;;;;19.92;13.43;;;;;;;10.69;58.26;101328.19;5074597;28;20080;-63
2022/04/19 05:54:33;;;;;;;18.88;14.30;;;;;;;10.84;57.38;101338.53;5074854;28;20359;-63
2022/04/19 05:56:58;;;;;;;20.30;13.93;;;;;;;10.82;57.40;101341.16;5074758;28;20121;-63
2022/04/19 05:59:23;;;;;;;22.05;13.85;;;;;;;10.64;55.77;101337.78;5074231;28;20371;-62
2022/04/19 06:07:16;;;;;;;21.15;14.20;;;;;;;10.21;56.71;101348.47;5074711;28;20063;-64
2022/04/19 06:09:42;;;;;;;19.88;13.95;;;;;;;10.29;56.42;101344.06;5074449;28;20423;-65
2022/04/19 06:12:07;;;;;;;21.98;13.65;;;;;;;10.33;56.75;101340.56;5074755;28;20064;-63
2022/04/19 06:14:33;;;;;;;19.33;13.07;;;;;;;10.43;56.96;101351.84;5074528;28;20029;-63
2022/04/19 06:16:58;;;;;;;19.88;13.50;;;;;;;10.59;55.69;101343.03;5066982;28;20067;-63
2022/04/19 06:19:23;;;;;;;19.70;13.43;;;;;;;10.64;55.58;101341.28;5067102;28;20455;-63
2022/04/19 06:21:48;;;;;;;20.48;13.25;;;;;;;10.79;54.77;101356.88;5073113;28;20082;-62
2022/04/19 06:24:14;;;;;;;19.15;13.30;;;;;;;10.85;54.26;101355.13;5074152;28;20082;-64
2022/04/19 06:26:39;;;;;;;18.63;12.80;;;;;;;11.05;54.12;101353.25;5073981;28;20088;-65
2022/04/19 06:29:04;;;;;;;18.75;12.35;;;;;;;11.02;53.83;101350.66;5074322;28;20044;-63
2022/04/19 06:31:30;;;;;;;19.58;13.60;;;;;;;10.95;53.86;101341.06;5075173;28;20039;-63
2022/04/19 06:33:55;;;;;;;19.80;13.77;;;;;;;10.93;54.52;101335.84;5078341;28;20053;-64
2022/04/19 06:36:20;;;;;;;19.60;13.40;;;;;;;10.99;55.09;101346.28;5078470;28;20079;-63
2022/04/19 06:38:45;;;;;;;20.13;13.10;;;;;;;11.07;54.28;101354.09;5078137;28;20340;-64
2022/04/19 06:41:11;;;;;;;19.10;12.82;;;;;;;11.39;53.44;101352.09;5077862;28;20059;-63
2022/04/19 06:43:37;;;;;;;18.65;12.90;;;;;;;11.46;52.16;101356.38;5077909;28;20029;-64
2022/04/19 06:46:02;;;;;;;23.10;12.85;;;;;;;11.48;52.32;101354.63;5078616;28;20033;-63
2022/04/19 06:48:29;;;;;;;26.63;12.95;;;;;;;11.58;51.67;101344.06;5075017;28;20029;-64
2022/04/19 06:50:54;;;;;;;17.90;12.25;;;;;;;11.95;51.59;101350.69;5062630;28;20475;-64
2022/04/19 06:53:20;;;;;;;17.23;12.43;;;;;;;12.42;50.53;101351.91;5064980;28;20036;-64
2022/04/19 06:55:45;;;;;;;18.52;12.32;;;;;;;12.68;49.67;101347.16;5078489;28;20393;-62
2022/04/19 06:58:10;;;;;;;18.95;11.70;;;;;;;12.67;48.77;101353.28;5094239;28;20134;-64
2022/04/19 07:00:36;;;;;;;20.40;12.60;;;;;;;12.47;49.58;101352.69;5097984;28;20040;-63
2022/04/19 07:03:01;;;;;;;19.15;12.63;;;;;;;12.45;49.26;101352.72;5098355;28;20169;-63
2022/04/19 07:05:26;;;;;;;21.88;12.13;;;;;;;12.55;48.91;101363.97;5097688;28;20032;-63
2022/04/19 07:07:51;;;;;;;19.75;12.23;;;;;;;12.65;48.08;101360.31;5097337;28;20110;-64
2022/04/19 07:10:17;;;;;;;18.55;12.45;;;;;;;12.88;48.27;101362.63;5097507;28;20538;-63
2022/04/19 07:12:42;;;;;;;18.27;12.30;;;;;;;13.06;48.79;101353.59;5085159;28;20036;-64
2022/04/19 07:15:08;;;;;;;17.92;11.98;;;;;;;13.22;47.04;101355.13;5077704;28;20091;-63
2022/04/19 07:17:37;;;;;;;17.30;11.95;;;;;;;13.33;47.26;101355.84;5077476;28;20031;-64
2022/04/19 07:28:35;;;;;;;16.48;11.30;;;;;;;13.59;47.23;101356.25;5077398;28;20056;-63
2022/04/19 07:31:01;;;;;;;16.83;11.63;;;;;;;13.53;46.58;101345.81;5077242;28;20064;-65
2022/04/19 07:33:26;;;;;;;16.95;10.63;;;;;;;13.56;46.97;101353.66;5077297;28;20123;-63
2022/04/19 07:35:55;;;;;;;18.05;10.60;;;;;;;13.64;45.94;101365.81;5077351;28;20060;-63
2022/04/19 07:38:20;;;;;;;16.52;9.50;;;;;;;13.64;45.01;101360.56;5077333;28;20539;-63
2022/04/19 07:40:46;;;;;;;14.65;9.25;;;;;;;13.65;45.05;101368.44;5077259;28;20123;-63
2022/04/19 07:43:11;;;;;;;16.90;10.15;;;;;;;13.65;45.92;101367.56;5076831;28;20028;-63
2022/04/19 07:45:36;;;;;;;16.90;10.27;;;;;;;13.61;45.60;101355.34;5077140;28;20351;-63
2022/04/19 07:48:04;;;;;;;16.83;10.38;;;;;;;13.73;45.21;101366.50;5077773;28;20121;-63
2022/04/19 07:50:30;;;;;;;15.00;9.63;;;;;;;13.77;44.47;101369.97;5077321;28;20028;-63
2022/04/19 07:52:55;;;;;;;18.75;9.82;;;;;;;13.75;44.18;101364.72;5077146;28;20037;-64
2022/04/19 07:55:21;;;;;;;14.40;9.15;;;;;;;13.76;43.94;101368.22;5077264;28;20060;-64
2022/04/19 07:57:46;;;;;;;14.18;8.88;;;;;;;13.77;44.37;101373.47;5077072;28;20108;-64
2022/04/19 08:00:13;;;;;;;13.38;9.15;;;;;;;13.83;44.52;101370.72;5076928;28;20028;-63
2022/04/19 08:02:39;;;;;;;14.68;9.55;;;;;;;13.85;43.66;101373.34;5077281;28;20441;-63
2022/04/19 08:05:04;;;;;;;15.63;9.18;;;;;;;13.82;43.67;101363.75;5076561;28;20059;-63
2022/04/19 08:07:30;;;;;;;14.52;8.95;;;;;;;13.87;43.55;101371.53;5076823;28;20066;-63
2022/04/19 08:09:58;;;;;;;16.83;9.77;;;;;;;13.83;45.18;101361.97;5076966;28;20037;-63
2022/04/19 08:12:24;;;;;;;14.88;9.35;;;;;;;13.99;44.51;101365.19;5076970;28;20036;-63
2022/04/19 08:14:49;;;;;;;15.07;9.02;;;;;;;14.10;43.73;101361.44;5076875;28;20093;-64
2022/04/19 08:17:15;;;;;;;16.03;9.93;;;;;;;14.18;43.41;101359.53;5076873;28;20447;-63
2022/04/19 08:19:40;;;;;;;15.85;10.07;;;;;;;14.13;43.68;101358.75;5076559;28;20258;-64
2022/04/19 08:22:05;;;;;;;15.15;9.10;;;;;;;14.24;43.46;101350.63;5076737;28;20466;-63
2022/04/19 08:24:30;;;;;;;13.05;8.27;;;;;;;14.34;43.05;101356.59;5076382;28;20097;-64
2022/04/19 08:26:55;;;;;;;11.93;8.15;;;;;;;14.38;42.76;101351.19;5076127;28;20039;-62
2022/04/19 08:29:21;;;;;;;14.55;8.32;;;;;;;14.39;41.98;101352.94;5076392;28;20097;-63
2022/04/19 08:31:46;;;;;;;13.68;7.95;;;;;;;14.51;42.70;101349.22;5076072;28;20029;-63
2022/04/19 08:34:12;;;;;;;13.90;7.70;;;;;;;14.58;42.44;101349.03;5076907;28;20132;-62
2022/04/19 08:36:38;;;;;;;11.52;7.28;;;;;;;14.70;41.70;101353.19;5076249;28;20263;-63
2022/04/19 08:39:04;;;;;;;14.27;7.40;;;;;;;14.71;41.62;101354.94;5076110;28;20364;-63
2022/04/19 08:41:30;;;;;;;13.23;7.45;;;;;;;14.79;40.86;101347.72;5076152;28;20032;-64
2022/04/19 08:43:55;;;;;;;14.35;7.63;;;;;;;14.88;40.77;101351.91;5076057;28;20029;-63
2022/04/19 08:46:20;;;;;;;12.77;8.07;;;;;;;14.99;41.51;101355.16;5075611;28;20032;-63
2022/04/19 08:48:47;;;;;;;10.82;6.68;;;;;;;15.10;40.55;101354.88;5075959;28;20051;-63
2022/04/19 08:51:15;;;;;;;11.43;6.63;;;;;;;15.45;39.31;101344.34;5075955;28;20079;-63
2022/04/19 08:59:08;;;;;;;12.00;5.70;;;;;;;16.75;37.42;101346.03;5075607;28;20447;-63
2022/04/19 09:01:37;;;;;;;9.57;6.03;;;;;;;17.62;35.90;101349.34;5075986;28;20111;-63
2022/04/19 09:04:04;;;;;;;10.70;5.43;;;;;;;17.97;34.89;101334.91;5075871;28;20056;-64
2022/04/19 09:06:54;;;;;;;9.75;5.70;;;;;;;17.61;35.64;101331.72;5075380;28;20055;-63
2022/04/19 09:09:38;;;;;;;10.57;5.85;;;;;;;17.31;36.46;101341.59;5071763;28;20031;-64
2022/04/19 09:12:11;;;;;;;11.82;6.82;;;;;;;17.08;37.29;101341.47;5055697;28;20029;-63
2022/04/19 09:14:53;;;;;;;8.80;5.90;;;;;;;16.91;36.67;101348.16;5073998;28;20115;-64
2022/04/19 09:17:28;;;;;;;;;;;;;;;16.92;37.20;101344.59;5075877;28;20436;-64
2022/04/19 09:19:53;;;;;;;12.07;6.15;;;;;;;16.68;37.38;101337.41;5075132;28;19912;-63
2022/04/19 09:22:25;;;;;;;9.80;5.95;;;;;;;16.76;37.80;101331.91;5074190;28;20039;-62
2022/04/19 09:24:51;;;;;;;10.73;6.68;;;;;;;16.66;37.66;101331.31;5075606;28;20032;-63
2022/04/19 09:27:32;;;;;;;10.20;6.82;;;;;;;16.74;37.85;101323.16;5075108;28;20044;-63
2022/04/19 09:30:17;;;;;;;12.07;6.47;;;;;;;16.84;37.96;101322.81;5075232;28;20416;-65
2022/04/19 09:32:59;;;;;;;10.82;5.63;;;;;;;17.11;36.95;101325.50;5074801;28;20135;-64
2022/04/19 09:35:48;;;;;;;;;;;;;;;17.12;38.46;101332.53;5061341;28;20410;-65
2022/04/19 09:38:14;;;;;;;8.77;5.25;;;;;;;17.47;37.06;101328.69;5063628;28;20090;-64
2022/04/19 09:40:50;;;;;;;8.10;5.20;;;;;;;17.63;35.48;101328.13;5074775;28;20025;-63
2022/04/19 09:43:20;;;;;;;8.32;5.60;;;;;;;17.62;35.13;101329.03;5074859;28;20027;-63
2022/04/19 09:45:54;;;;;;;9.23;5.13;;;;;;;17.61;35.32;101327.31;5074831;28;20510;-64
2022/04/19 09:48:27;;;;;;;7.93;4.93;;;;;;;17.65;34.71;101320.16;5074991;28;20507;-63
2022/04/19 09:51:07;;;;;;;8.88;4.90;;;;;;;17.48;35.46;101307.47;5074863;28;20443;-63
2022/04/19 09:53:48;;;;;;;8.93;4.80;;;;;;;17.71;36.04;101312.84;5074152;28;20047;-63
2022/04/19 09:56:19;;;;;;;11.30;4.85;;;;;;;17.86;35.10;101305.28;5074885;28;20040;-63
2022/04/19 09:58:47;;;;;;;8.38;4.82;;;;;;;18.07;34.22;101309.78;5075223;28;20032;-64
2022/04/19 10:09:34;;;;;;;10.45;4.93;;;;;;;18.46;34.93;101310.09;5075240;28;20154;-64
2022/04/19 10:12:04;;;;;;;10.38;5.93;;;;;;;18.47;33.72;101297.69;5074789;28;20032;-64
2022/04/19 10:14:31;;;;;;;10.52;5.60;;;;;;;18.32;34.11;101300.03;5075158;28;20028;-64
2022/04/19 10:17:02;;;;;;;8.27;4.72;;;;;;;18.31;34.86;101313.31;5074796;28;20032;-64
2022/04/19 10:19:28;;;;;;;8.80;5.32;;;;;;;18.33;33.87;101301.75;5074866;28;20029;-64
2022/04/19 10:21:54;;;;;;;8.60;5.00;;;;;;;18.33;33.89;101301.75;5074847;28;20039;-64
2022/04/19 10:24:20;;;;;;;6.90;4.60;;;;;;;18.39;33.78;101306.78;5074591;28;20049;-65
2022/04/19 10:26:51;;;;;;;6.68;4.43;;;;;;;18.62;34.11;101299.78;5074624;28;20040;-64
2022/04/19 10:29:23;;;;;;;8.80;5.40;;;;;;;18.61;33.55;101314.81;5074988;28;20093;-64
2022/04/19 10:31:58;;;;;;;8.20;5.10;;;;;;;18.66;34.84;101315.50;5074287;28;20039;-65
2022/04/19 10:34:26;;;;;;;9.73;5.78;;;;;;;18.78;34.11;101308.84;5074870;28;20040;-65
2022/04/19 10:36:54;;;;;;;8.10;5.32;;;;;;;18.87;33.01;101307.63;5074856;28;20028;-65
2022/04/19 10:39:24;;;;;;;9.50;5.60;;;;;;;19.02;33.40;101310.53;5074513;28;20123;-64
2022/04/19 10:41:58;;;;;;;8.95;5.38;;;;;;;18.84;33.42;101295.34;5074176;28;20048;-64
2022/04/19 10:44:52;;;;;;;10.95;6.03;;;;;;;18.97;34.28;101301.88;5074427;28;20033;-65
2022/04/19 10:47:23;;;;;;;10.18;5.85;;;;;;;18.97;33.24;101299.22;5070520;28;20371;-64
2022/04/19 10:49:51;;;;;;;8.95;5.85;;;;;;;18.79;33.31;101299.97;5074477;28;20408;-64
2022/04/19 10:52:38;;;;;;;10.95;5.93;;;;;;;18.75;34.10;101299.22;5074412;28;20124;-65
2022/04/19 10:55:23;;;;;;;10.15;5.60;;;;;;;18.70;33.57;101289.75;5074526;28;20021;-64
2022/04/19 10:58:23;;;;;;;6.32;4.50;;;;;;;18.64;33.10;101282.88;5074833;28;20036;-64
2022/04/19 11:00:59;;;;;;;10.45;4.57;;;;;;;18.60;32.84;101278.63;5074252;28;20166;-65
2022/04/19 11:03:25;;;;;;;6.72;3.90;;;;;;;18.74;31.61;101281.59;5074609;28;20121;-65
2022/04/19 11:05:55;;;;;;;7.97;3.97;;;;;;;18.78;31.80;101277.03;5073960;28;20416;-62
2022/04/19 11:08:26;;;;;;;8.93;4.50;;;;;;;19.00;32.58;101275.22;5074112;28;20032;-65
2022/04/19 11:10:57;;;;;;;7.93;4.53;;;;;;;19.12;32.49;101274.72;5074349;28;20025;-64
2022/04/19 11:13:26;;;;;;;7.68;5.35;;;;;;;19.09;32.61;101272.19;5074500;28;20043;-64
2022/04/19 11:16:03;;;;;;;11.15;5.75;;;;;;;19.04;32.39;101268.88;5074415;28;20115;-65
2022/04/19 11:18:30;;;;;;;9.65;5.20;;;;;;;19.19;33.62;101256.75;5076531;28;20093;-64
2022/04/19 11:20:58;;;;;;;8.32;5.40;;;;;;;19.33;32.51;101269.44;5077447;28;20040;-63
2022/04/19 11:23:25;;;;;;;10.00;5.20;;;;;;;19.36;31.74;101269.31;5078180;28;20328;-63
2022/04/19 11:25:51;;;;;;;8.85;5.60;;;;;;;19.29;31.75;101267.81;5076764;28;20375;-62
2022/04/19 11:28:30;;;;;;;11.55;6.28;;;;;;;19.35;33.11;101256.97;5077610;28;20051;-61
2022/04/19 11:30:55;;;;;;;10.93;6.07;;;;;;;19.29;32.66;101258.06;5078238;28;20033;-63
2022/04/19 11:33:22;;;;;;;10.37;6.17;;;;;;;19.27;32.68;101256.41;5077561;28;20048;-62
2022/04/19 11:36:08;;;;;;;9.80;5.60;;;;;;;19.35;33.22;101263.13;5077750;28;20037;-63
2022/04/19 11:38:38;;;;;;;10.60;6.40;;;;;;;19.31;32.51;101261.53;5077779;28;20122;-62
2022/04/19 11:46:44;;;;;;;11.68;6.43;;;;;;;19.29;32.54;101244.81;5077500;28;20078;-62
2022/04/19 11:49:10;;;;;;;12.80;6.40;;;;;;;19.34;33.07;101261.41;5077144;28;20049;-62
2022/04/19 11:51:37;;;;;;;11.18;6.38;;;;;;;19.54;32.58;101249.97;5077482;28;20047;-56
2022/04/19 11:54:05;;;;;;;9.60;5.70;;;;;;;19.78;34.17;101251.50;5077511;28;20127;-63
2022/04/19 11:56:31;;;;;;;10.65;6.03;;;;;;;19.80;32.39;101254.09;5077360;28;20025;-63
2022/04/19 11:59:01;;;;;;;11.57;5.80;;;;;;;19.65;32.13;101253.00;5077401;28;20028;-64
2022/04/19 12:01:28;;;;;;;7.70;4.75;;;;;;;19.58;31.73;101254.19;5077132;28;20040;-63
2022/04/19 12:03:54;;;;;;;9.82;4.68;;;;;;;19.57;31.71;101251.63;5077186;28;20040;-64